Ana Sayfa
METAR-TAF:

METAR-TAF

Havaalanları :

Kobe Havalimanı

Kobe, Japonya

Enlem: 34-37-58N, Boylam: 135-13-26E, yükseklik: 7 m

Güncel hava durumu gözlemi

Rapor saat 08:00 UTC de 55 dakika önce yapıldı.
Rüzgar batıdan 18 kt
Sıcaklık 11°C
Nem 58%
Basınç 1009 hPa
Görüş mesafesi 10 km veya daha fazla
2000 ft yükseklikte az bulutlu
parçalı çok bulutlu

METAR: RJBE 010800Z 26018KT 9999 FEW020 BKN/// 11/03 Q1009

Saat: 17:55 (08:55 UTC)


TAF: eksik

4.000'den fazla havaalanı için hava durumu gözlemleri ve tahminleri (METAR ve TAF raporları).

Kullanılabilir istasyonlar harita üzerinde sarı ve kırmızı noktalarla gösterilir.

İstasyonun adını görmek için fareyi noktanın üzerinde gezdirin.

Sonrasında hava gözlem ve tahminlerini görmek için tıklayın.

Haritayı değiştirmek için: yaklaştırmak için siyah artı işaretli yeşil düğmeye ve uzaklaştırmak için de eksi işaretli düğmeye hızla tıklayın; bitişik haritalar için yeşil okları kullanın.


METAR-TAF: